Time;durP1;ratioP1;P1;durP2;ratioP2;P2;SDS_P1;SDS_P2;PMS_P1;PMS_P2;Temp;Humidity;BMP_temperature;BMP_pressure;BME280_temperature;BME280_humidity;BME280_pressure;Samples;Min_cycle;Max_cycle;Signal;HPM_P1;HPM_P2
2023/06/06 00:00:00;;;;;;;5.83;1.40;;;;;;;19.11;54.00;99580.09;5036517;28;20286;-58
2023/06/06 00:02:31;;;;;;;4.47;1.50;;;;;;;18.88;52.88;99545.31;5037811;28;20749;-58
2023/06/06 00:05:02;;;;;;;5.13;1.43;;;;;;;19.12;52.80;99581.78;5046569;28;20279;-58
2023/06/06 00:07:32;;;;;;;4.33;1.27;;;;;;;19.18;53.49;99576.13;5036457;28;20908;-56
2023/06/06 00:10:03;;;;;;;2.73;1.30;;;;;;;19.29;54.61;99573.63;5061922;28;20312;-56
2023/06/06 00:12:35;;;;;;;4.97;1.33;;;;;;;19.45;54.54;99583.28;5056268;28;20415;-56
2023/06/06 00:15:06;;;;;;;7.37;1.80;;;;;;;19.64;53.73;99574.97;5066350;28;20302;-57
2023/06/06 00:17:38;;;;;;;4.30;1.50;;;;;;;19.67;52.13;99573.03;5056724;28;20377;-59
2023/06/06 00:20:09;;;;;;;5.63;1.83;;;;;;;19.64;52.18;99578.47;5066254;28;20274;-56
2023/06/06 00:22:40;;;;;;;3.83;1.30;;;;;;;19.66;52.18;99570.44;5056154;28;20740;-56
2023/06/06 00:25:10;;;;;;;3.93;1.60;;;;;;;19.76;52.83;99577.72;5065920;28;20294;-57
2023/06/06 00:27:42;;;;;;;6.47;1.73;;;;;;;19.91;53.07;99575.00;5055744;28;20278;-57
2023/06/06 00:30:14;;;;;;;3.00;1.03;;;;;;;19.99;52.76;99575.34;5064933;28;20365;-57
2023/06/06 00:32:44;;;;;;;3.40;1.37;;;;;;;19.82;50.86;99572.03;5056286;28;20361;-58
2023/06/06 00:35:15;;;;;;;5.50;1.67;;;;;;;19.92;52.01;99582.88;5066148;28;20817;-58
2023/06/06 00:37:45;;;;;;;5.30;1.60;;;;;;;20.02;53.02;99580.47;5055647;28;20775;-58
2023/06/06 00:40:16;;;;;;;4.63;1.50;;;;;;;20.08;52.50;99566.78;5065937;28;20278;-58
2023/06/06 00:42:48;;;;;;;4.27;1.60;;;;;;;20.14;51.98;99579.63;5035332;28;20414;-59
2023/06/06 00:45:19;;;;;;;9.33;1.80;;;;;;;20.00;51.94;99542.59;5045493;28;20395;-58
2023/06/06 00:47:49;;;;;;;5.30;1.63;;;;;;;20.11;52.27;99571.03;5054079;28;20701;-56
2023/06/06 00:50:21;;;;;;;2.33;1.30;;;;;;;20.17;53.31;99571.50;5065166;28;20347;-57
2023/06/06 00:52:52;;;;;;;1.90;1.20;;;;;;;20.28;52.85;99561.97;5055046;28;20365;-57
2023/06/06 00:55:23;;;;;;;10.83;1.40;;;;;;;20.48;53.19;99564.94;5065202;28;21051;-58
2023/06/06 00:57:55;;;;;;;3.07;1.53;;;;;;;20.57;51.84;99563.50;5054743;28;20922;-57
2023/06/06 01:00:27;;;;;;;4.57;1.20;;;;;;;20.68;52.14;99560.94;5065601;28;20274;-58
2023/06/06 01:02:59;;;;;;;5.33;1.60;;;;;;;20.77;52.79;99548.00;5054512;28;20272;-59
2023/06/06 01:05:30;;;;;;;5.10;1.50;;;;;;;20.94;52.05;99550.28;5059949;28;20389;-57
2023/06/06 01:08:01;;;;;;;3.20;1.20;;;;;;;20.90;51.27;99548.84;5065221;28;20353;-57
2023/06/06 01:10:34;;;;;;;8.40;1.70;;;;;;;20.86;50.89;99552.66;5055247;28;20351;-57
2023/06/06 01:13:14;;;;;;;4.93;1.30;;;;;;;20.97;51.36;99544.78;5064838;28;20324;-59
2023/06/06 01:15:49;;;;;;;4.23;1.30;;;;;;;21.10;50.33;99544.75;5054478;28;20363;-56
2023/06/06 01:18:22;;;;;;;3.70;1.10;;;;;;;20.90;49.69;99516.97;5065022;28;20276;-58
2023/06/06 01:20:53;;;;;;;6.63;1.50;;;;;;;21.18;50.62;99538.91;5055036;28;20281;-57
2023/06/06 01:23:30;;;;;;;4.73;1.30;;;;;;;21.28;50.66;99537.28;5065672;28;20320;-58
2023/06/06 01:26:05;;;;;;;4.90;1.20;;;;;;;21.36;51.38;99528.75;5054808;28;20371;-59
2023/06/06 01:28:36;;;;;;;2.17;1.17;;;;;;;21.52;50.61;99540.00;5055172;28;20355;-58
2023/06/06 01:31:09;;;;;;;5.27;1.13;;;;;;;21.58;51.30;99533.38;5064954;28;20298;-57
2023/06/06 01:33:45;;;;;;;2.77;1.20;;;;;;;21.67;50.06;99538.00;5054840;28;20336;-58
2023/06/06 01:36:24;;;;;;;6.73;1.83;;;;;;;21.74;51.29;99539.22;5065162;28;20302;-58
2023/06/06 01:39:01;;;;;;;3.43;1.30;;;;;;;21.76;49.98;99539.97;5053876;28;20678;-58
2023/06/06 01:41:35;;;;;;;6.17;1.53;;;;;;;21.69;48.60;99541.38;5044749;28;20287;-57
2023/06/06 01:44:08;;;;;;;3.80;1.30;;;;;;;21.75;48.86;99527.66;5044180;28;20361;-60
2023/06/06 01:46:41;;;;;;;5.03;1.20;;;;;;;21.74;50.99;99528.59;5033738;28;20052;-56
2023/06/06 01:49:12;;;;;;;6.67;2.00;;;;;;;21.82;50.41;99530.72;5043990;28;20278;-58
2023/06/06 01:51:42;;;;;;;3.97;1.50;;;;;;;21.86;50.29;99527.69;5034285;28;20290;-59
2023/06/06 01:54:15;;;;;;;4.63;1.63;;;;;;;22.03;50.91;99528.22;5044471;28;20054;-59
2023/06/06 01:56:45;;;;;;;7.53;1.30;;;;;;;21.96;49.66;99528.69;5034367;28;20336;-58
2023/06/06 01:59:16;;;;;;;3.90;1.27;;;;;;;22.00;49.64;99533.78;5044337;28;20819;-58
2023/06/06 02:01:46;;;;;;;5.07;1.33;;;;;;;22.08;50.00;99518.09;5043432;28;20310;-59
2023/06/06 02:04:17;;;;;;;2.27;1.10;;;;;;;22.12;50.12;99522.22;5064604;28;20067;-58
2023/06/06 02:06:47;;;;;;;8.17;1.50;;;;;;;22.16;50.25;99521.00;5053938;28;20494;-58
2023/06/06 02:09:19;;;;;;;1.70;1.10;;;;;;;22.08;50.91;99520.75;5064316;28;20044;-61
2023/06/06 02:11:50;;;;;;;3.73;1.33;;;;;;;22.09;49.71;99517.13;5054494;28;20344;-58
2023/06/06 02:14:20;;;;;;;2.90;1.40;;;;;;;22.07;49.62;99529.72;5064387;28;20147;-59
2023/06/06 02:16:51;;;;;;;2.97;1.53;;;;;;;22.07;51.05;99514.59;5053995;28;20451;-59
2023/06/06 02:19:21;;;;;;;8.60;1.30;;;;;;;22.05;50.54;99500.56;5064293;28;20066;-59
2023/06/06 02:21:52;;;;;;;5.80;1.17;;;;;;;22.14;50.13;99512.28;5053868;28;20070;-60
2023/06/06 02:24:27;;;;;;;8.17;1.53;;;;;;;22.09;49.80;99514.44;5064318;28;20054;-60
2023/06/06 02:26:58;;;;;;;6.10;1.30;;;;;;;22.06;50.23;99512.88;5041310;28;20079;-59
2023/06/06 02:29:32;;;;;;;1.93;1.20;;;;;;;21.97;49.44;99519.75;5059154;28;20755;-60
2023/06/06 02:32:03;;;;;;;4.97;2.00;;;;;;;21.83;50.47;99519.09;5059543;28;20378;-59
2023/06/06 02:34:33;;;;;;;6.03;1.70;;;;;;;21.83;51.51;99511.97;5048631;28;20098;-59
2023/06/06 02:37:06;;;;;;;6.60;1.23;;;;;;;21.90;51.88;99509.69;5059267;28;20063;-59
2023/06/06 02:39:38;;;;;;;8.63;1.83;;;;;;;21.88;50.25;99501.81;5047984;28;20132;-59
2023/06/06 02:42:10;;;;;;;3.57;1.53;;;;;;;21.88;49.99;99509.81;5058553;28;20929;-60
2023/06/06 02:44:40;;;;;;;14.57;1.70;;;;;;;21.92;52.15;99511.28;5045676;28;20470;-60
2023/06/06 02:47:12;;;;;;;10.90;1.67;;;;;;;22.00;51.47;99501.88;5058021;28;20060;-59
2023/06/06 02:49:45;;;;;;;5.17;1.43;;;;;;;22.06;52.32;99512.88;5047765;28;20068;-58
2023/06/06 02:52:15;;;;;;;9.47;1.70;;;;;;;22.05;50.98;99499.72;5059148;28;20048;-59
2023/06/06 02:54:48;;;;;;;5.10;1.47;;;;;;;21.89;50.83;99511.50;5051204;28;20060;-60
2023/06/06 02:57:18;;;;;;;10.13;1.50;;;;;;;21.80;52.48;99496.25;5062436;28;20048;-59
2023/06/06 02:59:49;;;;;;;11.80;2.00;;;;;;;21.81;51.93;99491.75;5052501;28;20061;-62
2023/06/06 03:02:20;;;;;;;9.47;2.10;;;;;;;21.97;52.24;99494.97;5053676;28;20151;-59
2023/06/06 03:04:50;;;;;;;8.97;1.77;;;;;;;21.89;51.17;99508.84;5037660;28;20053;-60
2023/06/06 03:07:21;;;;;;;7.53;2.43;;;;;;;21.78;50.60;99498.16;5053138;28;20167;-62
2023/06/06 03:09:53;;;;;;;7.23;2.03;;;;;;;21.78;51.84;99508.81;5039350;28;20764;-60
2023/06/06 03:12:23;;;;;;;6.10;1.70;;;;;;;21.84;52.61;99497.72;5052645;28;20286;-61
2023/06/06 03:14:54;;;;;;;6.07;1.63;;;;;;;21.87;51.64;99502.81;5051521;28;20052;-60
2023/06/06 03:17:26;;;;;;;8.70;1.87;;;;;;;21.83;52.78;99503.97;5062928;28;20374;-61
2023/06/06 03:19:57;;;;;;;8.70;2.00;;;;;;;21.71;52.59;99502.25;5051124;28;20759;-60
2023/06/06 03:22:28;;;;;;;9.33;2.40;;;;;;;21.76;52.84;99494.75;5061859;28;20282;-61
2023/06/06 03:25:00;;;;;;;7.07;2.00;;;;;;;21.70;53.17;99495.25;5023399;28;20344;-61
2023/06/06 03:27:30;;;;;;;8.57;2.50;;;;;;;21.54;52.15;99496.38;5026315;28;21215;-58
2023/06/06 03:30:06;;;;;;;8.10;2.10;;;;;;;21.38;53.85;99495.78;5033311;28;20336;-61
2023/06/06 03:32:37;;;;;;;8.00;2.07;;;;;;;21.31;54.52;99492.72;5024029;28;20314;-60
2023/06/06 03:35:08;;;;;;;5.53;2.30;;;;;;;21.38;53.63;99494.94;5033747;28;20777;-61
2023/06/06 03:37:40;;;;;;;9.97;2.13;;;;;;;21.18;52.18;99499.03;5023952;28;20519;-61
2023/06/06 03:40:13;;;;;;;12.87;1.90;;;;;;;21.07;52.96;99492.69;5032611;28;20299;-60
2023/06/06 03:42:44;;;;;;;8.10;1.47;;;;;;;21.03;53.34;99491.22;5022821;28;20368;-64
2023/06/06 03:45:14;;;;;;;7.90;1.70;;;;;;;20.92;54.69;99493.81;5033390;28;20283;-61
2023/06/06 03:47:45;;;;;;;12.10;2.30;;;;;;;20.98;55.21;99493.34;5022996;28;20299;-62
2023/06/06 03:50:17;;;;;;;10.77;2.33;;;;;;;20.90;55.03;99485.09;5061584;28;20286;-61
2023/06/06 03:52:48;;;;;;;11.17;2.80;;;;;;;20.78;55.69;99484.16;5050753;28;20310;-58
2023/06/06 03:55:20;;;;;;;6.37;2.33;;;;;;;20.73;55.71;99493.41;5060793;28;20385;-61
2023/06/06 03:57:52;;;;;;;10.60;2.60;;;;;;;20.76;56.89;99487.88;5050486;28;20292;-61
2023/06/06 04:00:23;;;;;;;11.43;2.53;;;;;;;20.86;57.21;99483.59;5061254;28;20286;-61
2023/06/06 04:02:53;;;;;;;11.73;2.97;;;;;;;20.79;57.10;99490.31;5051185;28;20274;-61
2023/06/06 04:05:24;;;;;;;11.37;2.93;;;;;;;20.47;57.36;99496.06;5061078;28;20282;-60
2023/06/06 04:07:55;;;;;;;15.70;3.37;;;;;;;20.28;59.13;99499.13;5030734;28;20385;-60
2023/06/06 04:10:27;;;;;;;12.60;3.73;;;;;;;20.28;59.82;99504.44;5040263;28;20279;-61
2023/06/06 04:12:58;;;;;;;12.17;2.87;;;;;;;20.21;58.22;99509.31;5041039;28;20986;-60
2023/06/06 04:15:28;;;;;;;19.33;3.93;;;;;;;20.12;59.09;99499.34;5052094;28;20287;-61
2023/06/06 04:17:59;;;;;;;13.50;3.80;;;;;;;20.09;60.78;99510.13;5049508;28;20339;-60
2023/06/06 04:20:32;;;;;;;11.10;3.53;;;;;;;20.16;60.82;99511.41;5056551;28;20278;-60
2023/06/06 04:23:02;;;;;;;14.07;3.63;;;;;;;20.14;60.28;99518.63;5060928;28;20298;-60
2023/06/06 04:25:35;;;;;;;10.23;3.33;;;;;;;20.06;60.47;99509.50;5049980;28;20278;-60
2023/06/06 04:28:08;;;;;;;16.60;3.13;;;;;;;20.12;60.83;99509.94;5061084;28;20296;-60
2023/06/06 04:30:40;;;;;;;16.03;3.50;;;;;;;20.10;60.25;99506.53;5050227;28;20616;-60
2023/06/06 04:33:12;;;;;;;11.83;2.70;;;;;;;20.17;60.49;99502.53;5060648;28;20286;-59
2023/06/06 04:35:42;;;;;;;8.73;2.30;;;;;;;20.23;59.07;99503.91;5050935;28;20385;-61
2023/06/06 04:38:13;;;;;;;11.03;3.20;;;;;;;20.30;58.33;99512.31;5060791;28;20294;-60
2023/06/06 04:40:50;;;;;;;5.83;2.40;;;;;;;20.29;57.98;99499.97;5049628;28;20405;-60
2023/06/06 04:43:25;;;;;;;;;;;;;;;20.44;58.82;99499.78;5060537;28;20281;-60
2023/06/06 04:45:57;;;;;;;16.70;3.27;;;;;;;20.50;57.27;99487.03;5031453;28;19925;-60
2023/06/06 04:48:28;;;;;;;17.97;3.17;;;;;;;20.44;57.31;99498.91;5044297;28;20278;-60
2023/06/06 04:50:59;;;;;;;13.40;2.70;;;;;;;20.25;57.02;99481.63;5027509;28;20287;-60
2023/06/06 04:53:30;;;;;;;10.63;2.40;;;;;;;20.15;57.24;99496.47;5037722;28;21109;-59
2023/06/06 04:56:05;;;;;;;11.17;2.90;;;;;;;19.97;58.12;99495.09;5041152;28;20352;-61
2023/06/06 04:58:36;;;;;;;22.43;3.30;;;;;;;19.94;58.59;99497.91;5030655;28;20344;-60
2023/06/06 05:01:07;;;;;;;11.93;2.73;;;;;;;19.78;58.17;99514.84;5041200;28;20287;-59
2023/06/06 05:03:39;;;;;;;8.63;2.70;;;;;;;19.81;59.25;99512.00;5028174;28;20313;-60
2023/06/06 05:06:09;;;;;;;11.93;3.33;;;;;;;19.95;59.96;99497.81;5038890;28;20287;-59
2023/06/06 05:08:44;;;;;;;14.47;2.90;;;;;;;19.48;58.73;99440.00;5030647;28;20295;-60
2023/06/06 05:11:19;;;;;;;11.50;3.13;;;;;;;19.92;60.00;99518.38;5038082;28;20318;-60
2023/06/06 05:13:50;;;;;;;11.80;2.90;;;;;;;20.00;59.90;99506.31;5030010;28;20302;-61
2023/06/06 05:16:21;;;;;;;11.57;2.70;;;;;;;20.01;59.52;99499.22;5040037;28;20295;-61
2023/06/06 05:18:51;;;;;;;10.60;2.97;;;;;;;20.03;60.25;99497.31;5030420;28;20362;-60
2023/06/06 05:21:22;;;;;;;14.67;3.30;;;;;;;19.98;59.88;99499.41;5035648;28;20822;-60
2023/06/06 05:23:54;;;;;;;18.63;3.40;;;;;;;19.96;60.44;99503.97;5030512;28;20285;-60
2023/06/06 05:26:27;;;;;;;9.97;2.70;;;;;;;19.89;60.02;99505.34;5040648;28;20286;-60
2023/06/06 05:28:57;;;;;;;9.50;2.60;;;;;;;19.93;60.53;99514.78;5027848;28;20339;-59
2023/06/06 05:31:28;;;;;;;14.57;3.13;;;;;;;19.92;60.48;99513.06;5043438;28;20294;-60
2023/06/06 05:33:58;;;;;;;8.77;3.30;;;;;;;19.95;61.05;99507.59;5048272;28;20336;-63
2023/06/06 05:36:29;;;;;;;10.63;2.90;;;;;;;19.94;60.50;99521.78;5058693;28;21318;-58
2023/06/06 05:39:00;;;;;;;8.53;2.70;;;;;;;20.06;61.06;99525.41;5059178;28;20834;-60
2023/06/06 05:41:32;;;;;;;9.10;3.07;;;;;;;20.02;60.49;99514.19;5052400;28;20608;-59
2023/06/06 05:44:03;;;;;;;6.10;2.70;;;;;;;19.92;60.58;99528.97;5059416;28;20290;-60
2023/06/06 05:46:34;;;;;;;16.90;3.47;;;;;;;19.57;61.07;99524.22;5048441;28;20764;-60
2023/06/06 05:49:04;;;;;;;15.17;3.10;;;;;;;19.74;61.47;99537.19;5058886;28;20286;-60
2023/06/06 05:51:35;;;;;;;9.13;3.13;;;;;;;19.85;61.14;99535.66;5048449;28;20682;-60
2023/06/06 05:54:07;;;;;;;14.83;3.30;;;;;;;19.95;61.79;99529.66;5059076;28;20286;-60
2023/06/06 05:56:47;;;;;;;21.30;3.17;;;;;;;19.84;61.14;99468.53;5048613;28;21021;-61
2023/06/06 05:59:18;;;;;;;10.97;2.77;;;;;;;20.12;60.95;99530.28;5059799;28;20836;-61
2023/06/06 06:01:49;;;;;;;12.13;3.20;;;;;;;19.89;60.73;99534.50;5048247;28;21004;-59
2023/06/06 06:04:20;;;;;;;12.03;3.07;;;;;;;19.50;61.46;99528.19;5058629;28;20293;-58
2023/06/06 06:06:51;;;;;;;12.70;2.90;;;;;;;19.23;62.17;99531.66;5048313;28;21442;-61
2023/06/06 06:09:21;;;;;;;18.53;3.30;;;;;;;19.00;62.01;99532.28;5058838;28;20296;-60
2023/06/06 06:11:54;;;;;;;19.03;3.23;;;;;;;18.74;63.59;99534.69;5047834;28;20298;-60
2023/06/06 06:14:25;;;;;;;17.73;2.97;;;;;;;18.69;64.30;99531.50;5059193;28;20817;-60
2023/06/06 06:16:55;;;;;;;12.30;3.37;;;;;;;18.67;64.82;99528.09;5036056;28;20283;-60
2023/06/06 06:19:26;;;;;;;15.77;3.30;;;;;;;19.18;65.03;99528.47;5047842;28;20385;-60
2023/06/06 06:21:56;;;;;;;11.07;3.07;;;;;;;19.79;62.97;99529.81;5029068;28;20334;-60
2023/06/06 06:24:30;;;;;;;11.30;2.80;;;;;;;20.29;62.19;99526.50;5029049;28;20836;-61
2023/06/06 06:27:02;;;;;;;11.87;2.93;;;;;;;20.41;61.07;99536.28;5020869;28;20275;-60
2023/06/06 06:29:33;;;;;;;11.57;3.20;;;;;;;20.39;61.45;99532.88;5044536;28;20274;-61
2023/06/06 06:32:03;;;;;;;11.23;2.83;;;;;;;20.29;60.44;99531.81;5059797;28;21476;-61
2023/06/06 06:34:35;;;;;;;6.23;2.57;;;;;;;19.71;61.57;99531.25;5053051;28;20285;-60
2023/06/06 06:37:07;;;;;;;8.77;3.10;;;;;;;19.29;62.24;99531.25;5063731;28;20771;-60
2023/06/06 06:39:37;;;;;;;13.20;3.27;;;;;;;18.93;63.02;99535.31;5053028;28;20893;-60
2023/06/06 06:42:10;;;;;;;14.17;2.53;;;;;;;18.66;64.15;99536.97;5063155;28;20787;-60
2023/06/06 06:44:40;;;;;;;11.00;3.13;;;;;;;18.65;65.48;99535.28;5053041;28;20297;-60
2023/06/06 06:47:11;;;;;;;12.13;3.40;;;;;;;18.75;66.03;99544.38;5062965;28;20306;-60
2023/06/06 06:49:43;;;;;;;16.93;3.23;;;;;;;18.72;65.58;99531.28;5052610;28;20301;-62
2023/06/06 06:52:17;;;;;;;10.40;3.60;;;;;;;18.92;65.93;99538.91;5063085;28;20290;-60
2023/06/06 06:54:53;;;;;;;11.23;3.13;;;;;;;19.29;65.48;99535.72;5051921;28;20292;-61
2023/06/06 06:57:26;;;;;;;11.10;2.83;;;;;;;19.61;63.88;99542.44;5061261;28;20343;-60
2023/06/06 06:59:57;;;;;;;7.20;2.87;;;;;;;19.73;63.24;99546.13;5051332;28;20281;-60
2023/06/06 07:02:30;;;;;;;12.53;3.50;;;;;;;19.71;62.84;99542.72;5061245;28;20810;-60
2023/06/06 07:05:01;;;;;;;8.50;2.87;;;;;;;19.80;63.02;99542.13;5031124;28;20741;-59
2023/06/06 07:07:31;;;;;;;11.93;3.00;;;;;;;19.83;62.81;99533.94;5038210;28;20289;-60
2023/06/06 07:10:02;;;;;;;11.73;3.13;;;;;;;19.75;62.29;99544.22;5053139;28;20291;-59
2023/06/06 07:12:34;;;;;;;10.83;2.90;;;;;;;19.79;62.40;99544.84;5042917;28;21004;-60
2023/06/06 07:15:08;;;;;;;11.33;3.00;;;;;;;19.68;62.63;99537.63;5053497;28;20314;-60
2023/06/06 07:17:38;;;;;;;8.53;2.57;;;;;;;19.53;63.06;99543.91;5043243;28;20403;-60
2023/06/06 07:20:15;;;;;;;9.33;2.97;;;;;;;19.42;63.34;99535.78;5052920;28;20283;-60
2023/06/06 07:22:55;;;;;;;11.90;3.20;;;;;;;19.37;63.21;99539.59;5042379;28;20282;-59
2023/06/06 07:25:29;;;;;;;11.95;3.00;;;;;;;19.38;63.04;99546.56;5052452;28;21170;-60
2023/06/06 07:28:03;;;;;;;11.40;3.23;;;;;;;19.30;63.67;99559.47;5050835;28;20048;-62
2023/06/06 07:30:36;;;;;;;10.80;2.93;;;;;;;19.27;64.43;99564.97;5051434;28;20325;-61
2023/06/06 07:33:07;;;;;;;11.80;3.20;;;;;;;19.28;63.66;99556.06;5062721;28;20286;-60
2023/06/06 07:35:40;;;;;;;10.57;2.93;;;;;;;19.25;63.94;99564.22;5052254;28;20300;-61
2023/06/06 07:38:12;;;;;;;7.93;2.47;;;;;;;19.19;63.81;99556.63;5060916;28;20732;-60
2023/06/06 07:40:53;;;;;;;18.87;3.30;;;;;;;18.75;63.89;99478.19;5050206;28;20325;-60
2023/06/06 07:43:38;;;;;;;14.07;3.37;;;;;;;19.05;63.98;99559.31;5051207;28;20302;-60
2023/06/06 07:46:10;;;;;;;9.55;2.65;;;;;;;18.96;64.07;99556.28;5062134;28;20504;-59
2023/06/06 07:48:42;;;;;;;8.90;3.00;;;;;;;18.91;64.30;99558.38;5051236;28;20136;-60
2023/06/06 07:51:15;;;;;;;10.03;2.77;;;;;;;18.79;64.78;99553.84;5061814;28;20377;-59
2023/06/06 07:53:47;;;;;;;10.63;2.80;;;;;;;18.81;64.88;99562.53;5051764;28;20988;-60
2023/06/06 07:56:20;;;;;;;7.43;2.93;;;;;;;18.77;64.81;99561.03;5061890;28;20302;-60
2023/06/06 07:58:55;;;;;;;11.77;2.50;;;;;;;18.73;64.90;99562.13;5050989;28;20434;-59
2023/06/06 08:01:27;;;;;;;8.93;2.97;;;;;;;18.56;64.62;99562.31;5061475;28;20286;-60
2023/06/06 08:03:59;;;;;;;9.27;3.33;;;;;;;18.47;65.36;99558.41;5040970;28;20389;-61
2023/06/06 08:06:33;;;;;;;12.77;3.00;;;;;;;18.49;65.85;99554.72;5045567;28;20332;-60
2023/06/06 08:09:06;;;;;;;11.17;2.70;;;;;;;18.43;65.62;99563.03;5051565;28;20382;-60
2023/06/06 08:11:37;;;;;;;10.47;3.03;;;;;;;18.31;65.84;99563.78;5042189;28;20338;-61
2023/06/06 08:14:10;;;;;;;10.90;2.77;;;;;;;18.27;65.70;99567.53;5052214;28;20298;-61
2023/06/06 08:16:42;;;;;;;11.17;2.83;;;;;;;18.25;65.71;99569.44;5041617;28;21028;-61
2023/06/06 08:19:12;;;;;;;12.30;3.53;;;;;;;18.20;65.83;99561.78;5051828;28;20624;-60
2023/06/06 08:21:44;;;;;;;8.77;3.00;;;;;;;18.16;65.83;99585.84;5041376;28;20287;-61
2023/06/06 08:24:16;;;;;;;9.73;3.13;;;;;;;18.14;65.61;99577.13;5051420;28;20287;-62
2023/06/06 08:26:48;;;;;;;10.53;3.37;;;;;;;18.11;65.53;99578.16;5041740;28;20294;-61
2023/06/06 08:29:25;;;;;;;9.43;2.80;;;;;;;18.07;65.69;99582.78;5052096;28;20868;-59
2023/06/06 08:31:56;;;;;;;6.77;2.47;;;;;;;17.97;64.89;99586.03;5041099;28;20732;-60
2023/06/06 08:34:30;;;;;;;11.17;2.63;;;;;;;17.82;64.61;99588.66;5051301;28;20283;-59
2023/06/06 08:37:02;;;;;;;6.27;2.47;;;;;;;17.61;64.87;99552.84;5050070;28;20339;-61
2023/06/06 08:39:33;;;;;;;15.43;3.00;;;;;;;17.81;64.80;99586.06;5049584;28;20347;-60
2023/06/06 08:42:09;;;;;;;9.07;2.47;;;;;;;17.74;64.53;99592.59;5059998;28;20286;-61
2023/06/06 08:44:45;;;;;;;11.57;2.67;;;;;;;17.63;64.31;99599.34;5049791;28;20294;-61
2023/06/06 08:47:18;;;;;;;5.60;2.17;;;;;;;17.52;63.78;99601.72;5060940;28;20290;-61
2023/06/06 08:49:50;;;;;;;7.40;2.57;;;;;;;17.42;64.24;99611.09;5048926;28;20582;-61
2023/06/06 08:52:22;;;;;;;7.83;2.43;;;;;;;17.27;64.05;99607.50;5060077;28;20290;-60
2023/06/06 08:54:55;;;;;;;6.53;2.47;;;;;;;17.18;63.14;99613.31;5049282;28;20359;-60
2023/06/06 08:57:41;;;;;;;12.77;2.53;;;;;;;16.97;63.34;99610.91;5041377;28;20312;-59
2023/06/06 09:01:09;;;;;;;;;;;;;;;;;;;;;
2023/06/06 09:07:18;;;;;;;7.37;2.57;;;;;;;16.79;64.26;99636.44;5007949;28;20306;-63
2023/06/06 09:10:09;;;;;;;8.67;2.63;;;;;;;16.70;63.58;99629.00;5029355;28;20290;-61
2023/06/06 09:12:55;;;;;;;8.13;2.40;;;;;;;16.68;64.04;99636.13;5028892;28;20393;-61
2023/06/06 09:15:30;;;;;;;7.63;2.70;;;;;;;16.61;63.85;99645.28;5043822;28;21091;-61
2023/06/06 09:18:01;;;;;;;5.20;2.20;;;;;;;16.50;64.19;99642.31;5041976;28;20278;-61
2023/06/06 09:20:40;;;;;;;8.53;2.77;;;;;;;16.47;64.15;99650.38;5049986;28;20323;-61
2023/06/06 09:23:19;;;;;;;5.13;2.35;;;;;;;16.31;64.24;99653.78;5059963;28;20802;-62
2023/06/06 09:25:50;;;;;;;10.38;2.25;;;;;;;15.74;64.12;99589.84;5048768;28;20053;-61
2023/06/06 09:28:22;;;;;;;3.77;2.27;;;;;;;15.84;64.53;99659.59;5059568;28;20055;-60
2023/06/06 09:31:02;;;;;;;9.63;2.57;;;;;;;15.34;65.14;99654.88;5019703;28;20299;-60
2023/06/06 09:33:34;;;;;;;5.53;2.30;;;;;;;15.09;66.51;99668.28;5021003;28;20690;-62
2023/06/06 09:36:10;;;;;;;10.97;2.60;;;;;;;14.92;67.42;99690.06;5030668;28;20279;-60
2023/06/06 09:38:46;;;;;;;14.90;2.40;;;;;;;14.76;68.32;99678.53;5020615;28;20386;-60
2023/06/06 09:41:18;;;;;;;11.13;3.17;;;;;;;14.61;69.02;99675.63;5031319;28;20303;-60
2023/06/06 09:43:53;;;;;;;7.17;2.10;;;;;;;14.26;69.75;99642.06;5020179;28;20281;-60
2023/06/06 09:46:44;;;;;;;7.83;2.20;;;;;;;14.55;69.57;99683.78;5030436;28;20291;-61
2023/06/06 09:49:44;;;;;;;9.60;2.60;;;;;;;13.94;69.89;99584.66;5029760;28;20302;-60
2023/06/06 09:52:17;;;;;;;7.67;2.30;;;;;;;14.62;69.29;99693.09;5030434;28;20753;-60
2023/06/06 09:55:15;;;;;;;6.80;2.40;;;;;;;14.57;69.25;99691.59;5019805;28;20368;-59
2023/06/06 09:57:49;;;;;;;10.17;2.70;;;;;;;14.49;69.78;99691.88;5014148;28;20313;-60
2023/06/06 10:00:47;;;;;;;7.37;2.83;;;;;;;14.24;69.77;99666.59;5030347;28;20294;-60
2023/06/06 10:03:40;;;;;;;5.03;2.33;;;;;;;13.94;70.84;99662.59;5015451;28;20285;-61
2023/06/06 10:06:14;;;;;;;5.20;3.13;;;;;;;14.06;71.39;99696.25;5030422;28;20888;-61
2023/06/06 10:08:47;;;;;;;9.93;4.13;;;;;;;13.96;71.98;99692.28;5020194;28;20291;-60
2023/06/06 10:11:21;;;;;;;13.00;3.95;;;;;;;13.92;72.45;99706.44;5059234;28;20827;-61
2023/06/06 10:13:54;;;;;;;9.27;3.20;;;;;;;13.90;72.73;99705.63;5048035;28;20045;-62
2023/06/06 10:16:27;;;;;;;7.20;2.73;;;;;;;13.84;72.81;99709.38;5057831;28;20337;-61
2023/06/06 10:19:01;;;;;;;11.98;3.63;;;;;;;13.73;73.23;99701.91;5048208;28;20302;-62
2023/06/06 10:21:36;;;;;;;8.30;2.63;;;;;;;13.76;73.43;99701.78;5048200;28;20058;-61
2023/06/06 10:24:17;;;;;;;5.73;2.73;;;;;;;13.67;73.29;99702.13;5039767;28;20058;-59
2023/06/06 10:26:56;;;;;;;9.82;2.92;;;;;;;13.59;73.57;99698.94;5047540;28;20550;-62
2023/06/06 10:29:51;;;;;;;12.95;3.00;;;;;;;13.39;73.86;99697.06;5025596;28;20143;-60
2023/06/06 10:32:42;;;;;;;6.10;2.83;;;;;;;13.29;74.42;99712.28;5057412;28;20425;-60
2023/06/06 10:35:26;;;;;;;8.05;3.05;;;;;;;13.22;75.01;99716.00;5058353;28;20121;-66
2023/06/06 10:38:10;;;;;;;10.15;3.65;;;;;;;12.87;75.44;99673.53;5029057;28;20742;-62
2023/06/06 10:40:50;;;;;;;10.65;3.38;;;;;;;13.06;76.22;99720.09;5043314;28;20072;-62
2023/06/06 10:43:54;;;;;;;9.23;3.33;;;;;;;13.00;76.55;99725.53;5058738;28;20643;-61
2023/06/06 10:46:25;;;;;;;5.68;2.58;;;;;;;12.87;77.03;99732.97;5058532;28;20052;-62
2023/06/06 10:49:06;;;;;;;11.90;3.08;;;;;;;12.80;77.61;99740.19;5048391;28;20151;-61
2023/06/06 10:51:42;;;;;;;17.30;3.53;;;;;;;12.76;78.17;99750.84;5048581;28;20123;-63
2023/06/06 10:54:21;;;;;;;10.27;3.03;;;;;;;12.64;78.46;99739.00;5056848;28;20057;-61
2023/06/06 10:56:55;;;;;;;10.52;3.20;;;;;;;12.64;79.12;99749.50;5049147;28;20387;-61
2023/06/06 10:59:31;;;;;;;9.13;3.03;;;;;;;12.51;79.13;99734.16;5059282;28;20050;-63
2023/06/06 11:02:12;;;;;;;7.35;3.20;;;;;;;12.57;79.33;99753.22;5019535;28;20652;-61
2023/06/06 11:05:03;;;;;;;8.52;3.30;;;;;;;12.06;79.71;99669.25;5020191;28;21362;-62
2023/06/06 11:07:41;;;;;;;7.82;3.42;;;;;;;12.60;79.26;99753.09;5020361;28;20089;-63
2023/06/06 11:10:12;;;;;;;9.93;3.10;;;;;;;12.42;79.94;99744.94;5030025;28;20422;-63
2023/06/06 11:12:44;;;;;;;7.95;3.25;;;;;;;12.45;79.92;99765.78;5019805;28;20068;-63
2023/06/06 11:15:29;;;;;;;13.77;3.72;;;;;;;12.41;80.28;99764.19;5033389;28;20057;-61
2023/06/06 11:18:05;;;;;;;14.13;3.70;;;;;;;12.23;80.38;99743.81;5022656;28;20540;-63
2023/06/06 11:20:41;;;;;;;6.95;3.30;;;;;;;12.26;80.61;99754.22;5024224;28;20055;-64
2023/06/06 11:23:20;;;;;;;8.30;3.38;;;;;;;12.25;80.73;99762.97;5033058;28;20055;-62
2023/06/06 11:26:25;;;;;;;13.73;3.47;;;;;;;12.15;80.80;99740.56;5023016;28;20616;-63
2023/06/06 11:29:25;;;;;;;8.88;3.35;;;;;;;12.20;81.13;99770.94;5019332;28;20102;-62
2023/06/06 11:35:46;;;;;;;6.30;3.33;;;;;;;12.19;80.74;99773.63;5033364;28;20510;-60
2023/06/06 11:38:55;;;;;;;5.63;2.88;;;;;;;12.19;80.52;99779.72;5047664;28;20048;-62
2023/06/06 11:42:11;;;;;;;8.45;3.65;;;;;;;12.16;80.68;99778.97;5030049;28;20060;-63
2023/06/06 11:44:46;;;;;;;11.43;4.85;;;;;;;12.11;80.79;99775.66;5031611;28;20182;-64
2023/06/06 11:47:51;;;;;;;13.32;5.07;;;;;;;12.15;80.49;99772.00;5061796;28;20052;-62
2023/06/06 11:54:46;;;;;;;6.50;3.63;;;;;;;12.02;80.90;99780.22;5048318;28;20063;-62
2023/06/06 11:57:29;;;;;;;8.90;3.15;;;;;;;11.92;80.75;99765.69;4998892;28;20160;-63
2023/06/06 12:00:14;;;;;;;8.18;3.13;;;;;;;11.88;80.96;99764.06;4988859;28;20069;-64
2023/06/06 12:02:53;;;;;;;8.90;2.55;;;;;;;11.87;81.21;99763.22;4990100;28;20060;-64
2023/06/06 12:05:27;;;;;;;7.68;2.78;;;;;;;11.91;81.54;99774.47;4998052;28;20057;-63
2023/06/06 12:08:03;;;;;;;6.28;2.55;;;;;;;11.89;81.63;99776.28;4987556;28;20068;-64
2023/06/06 12:10:35;;;;;;;5.05;2.58;;;;;;;11.82;81.77;99780.78;4989030;28;20476;-60
2023/06/06 12:13:10;;;;;;;13.80;3.20;;;;;;;11.63;82.08;99756.94;4999596;28;20147;-61
2023/06/06 12:15:49;;;;;;;5.10;3.05;;;;;;;11.72;82.52;99779.34;4989304;28;20140;-63